Time;durP1;ratioP1;P1;durP2;ratioP2;P2;SDS_P1;SDS_P2;PMS_P1;PMS_P2;Temp;Humidity;BMP_temperature;BMP_pressure;BME280_temperature;BME280_humidity;BME280_pressure;Samples;Min_cycle;Max_cycle;Signal;HPM_P1;HPM_P2
2023/01/03 00:00:36;;;;;;;69.78;31.52;;;;;;;5.20;74.83;100786.38;3156152;28;20159;-66
2023/01/03 00:02:08;;;;;;;60.30;29.90;;;;;;;5.09;74.82;100772.66;3156737;28;20151;-67
2023/01/03 00:03:39;;;;;;;69.32;31.25;;;;;;;5.12;74.82;100778.69;3155358;28;20070;-67
2023/01/03 00:05:11;;;;;;;62.25;29.73;;;;;;;5.13;74.91;100788.16;3156763;28;20048;-67
2023/01/03 00:06:44;;;;;;;68.55;30.15;;;;;;;5.02;74.94;100771.88;3155773;28;20058;-68
2023/01/03 00:08:16;;;;;;;;;;;;;;;5.03;75.00;100783.94;3157057;28;20048;-68
2023/01/03 00:09:48;;;;;;;79.32;35.08;;;;;;;5.01;75.24;100789.09;3156102;28;19930;-68
2023/01/03 00:12:22;;;;;;;103.80;40.58;;;;;;;5.04;75.31;100784.78;3155918;28;20109;-68
2023/01/03 00:13:16;;;;;;;91.00;38.10;;;;;;;5.02;75.40;100784.78;3160206;28;20516;-68
2023/01/03 00:14:47;;;;;;;85.07;35.72;;;;;;;5.00;75.31;100787.38;3166196;28;20498;-68
2023/01/03 00:16:20;;;;;;;75.78;32.00;;;;;;;5.01;75.26;100789.09;3169305;28;20051;-68
2023/01/03 00:17:52;;;;;;;78.20;34.33;;;;;;;5.00;75.23;100796.84;3166592;28;20436;-68
2023/01/03 00:19:25;;;;;;;70.32;31.70;;;;;;;4.94;75.36;100784.84;3157096;28;20430;-68
2023/01/03 00:21:03;;;;;;;75.93;31.70;;;;;;;4.41;75.37;100703.44;3156769;28;20513;-69
2023/01/03 00:22:35;;;;;;;74.38;32.10;;;;;;;4.95;75.45;100790.84;3156530;28;20125;-68
2023/01/03 00:24:07;;;;;;;65.07;30.60;;;;;;;4.93;75.39;100792.56;3156437;28;20586;-68
2023/01/03 00:25:38;;;;;;;65.57;29.60;;;;;;;4.92;75.49;100790.88;3156069;28;20147;-69
2023/01/03 00:27:10;;;;;;;64.00;30.65;;;;;;;4.91;75.63;100789.13;3156402;28;20055;-69
2023/01/03 00:28:44;;;;;;;64.93;30.02;;;;;;;4.90;75.51;100784.84;3165216;28;20055;-70
2023/01/03 00:30:15;;;;;;;63.05;30.23;;;;;;;4.89;75.64;100785.72;3168063;28;20689;-69
2023/01/03 00:31:47;;;;;;;65.43;30.23;;;;;;;4.82;75.69;100777.16;3161998;28;20056;-69
2023/01/03 00:33:19;;;;;;;71.40;33.45;;;;;;;4.88;75.60;100786.56;3167612;28;20051;-70
2023/01/03 00:34:51;;;;;;;69.35;32.17;;;;;;;4.85;75.63;100790.06;3171352;28;20504;-69
2023/01/03 00:36:22;;;;;;;67.95;30.33;;;;;;;4.82;75.68;100784.88;3164193;28;20129;-69
2023/01/03 00:37:53;;;;;;;56.63;27.48;;;;;;;4.82;75.56;100787.47;3158765;28;20047;-69
2023/01/03 00:39:25;;;;;;;56.80;28.08;;;;;;;4.79;75.71;100783.22;3156071;28;20055;-69
2023/01/03 00:41:04;;;;;;;63.13;28.20;;;;;;;4.22;75.56;100691.50;3155455;28;20137;-67
2023/01/03 00:43:27;;;;;;;57.67;28.02;;;;;;;4.79;75.86;100785.78;3166703;28;20055;-69
2023/01/03 00:44:28;;;;;;;58.08;28.73;;;;;;;4.78;75.97;100778.91;3153023;28;20507;-69
2023/01/03 00:46:00;;;;;;;54.40;28.17;;;;;;;4.71;75.87;100776.38;3164372;28;20044;-69
2023/01/03 00:47:32;;;;;;;61.85;29.50;;;;;;;4.76;76.02;100785.81;3165893;28;20117;-69
2023/01/03 00:49:05;;;;;;;59.08;28.60;;;;;;;4.77;75.80;100786.66;3162546;28;20047;-67
2023/01/03 00:50:36;;;;;;;54.97;29.38;;;;;;;4.74;75.91;100778.94;3170493;28;20044;-67
2023/01/03 00:52:08;;;;;;;59.72;27.63;;;;;;;4.72;75.96;100773.78;3159056;28;20052;-66
2023/01/03 00:53:40;;;;;;;55.38;27.92;;;;;;;4.72;75.91;100778.06;3158450;28;20052;-68
2023/01/03 00:55:12;;;;;;;60.45;27.52;;;;;;;4.71;75.97;100769.50;3159818;28;20162;-68
2023/01/03 00:56:45;;;;;;;58.90;28.30;;;;;;;4.70;75.89;100774.63;3162804;28;20048;-68
2023/01/03 00:58:16;;;;;;;60.35;29.23;;;;;;;4.69;76.05;100768.63;3157904;28;20208;-68
2023/01/03 00:59:49;;;;;;;61.08;27.58;;;;;;;4.63;76.28;100758.34;3171307;28;20501;-68
2023/01/03 01:01:22;;;;;;;67.07;29.00;;;;;;;4.66;76.20;100776.38;3158828;28;20109;-68
2023/01/03 01:02:54;;;;;;;;;;;;;;;4.59;76.16;100771.28;3166156;28;20458;-68
2023/01/03 01:04:28;;;;;;;63.30;28.00;;;;;;;4.56;76.48;100769.56;3158409;28;20247;-69
2023/01/03 01:05:58;;;;;;;59.95;28.90;;;;;;;4.19;76.38;100704.41;3163576;28;20055;-69
2023/01/03 01:07:30;;;;;;;60.80;30.08;;;;;;;4.54;76.51;100759.25;3158352;28;20524;-68
2023/01/03 01:09:04;;;;;;;58.38;29.35;;;;;;;4.59;76.63;100771.28;3158195;28;20094;-68
2023/01/03 01:10:36;;;;;;;71.35;30.05;;;;;;;4.52;76.70;100755.81;3167222;28;20071;-69
2023/01/03 01:12:08;;;;;;;67.60;29.70;;;;;;;4.58;76.55;100765.25;3166620;28;20043;-69
2023/01/03 01:13:41;;;;;;;66.50;29.60;;;;;;;4.55;76.62;100766.13;3163883;28;20109;-68
2023/01/03 01:15:15;;;;;;;62.85;29.73;;;;;;;4.52;76.66;100755.81;3165016;28;20046;-68
2023/01/03 01:16:49;;;;;;;62.40;29.67;;;;;;;4.40;76.63;100737.81;3164922;28;20077;-69
2023/01/03 01:18:20;;;;;;;65.38;29.13;;;;;;;4.45;76.70;100742.97;3158198;28;20055;-69
2023/01/03 01:19:51;;;;;;;58.28;29.40;;;;;;;4.52;76.68;100757.53;3162623;28;20137;-69
2023/01/03 01:21:25;;;;;;;59.80;29.30;;;;;;;4.50;76.72;100757.56;3170844;28;20077;-69
2023/01/03 01:22:56;;;;;;;58.85;28.30;;;;;;;4.47;76.71;100756.72;3171044;28;20525;-69
2023/01/03 01:24:28;;;;;;;65.57;29.92;;;;;;;4.46;76.83;100757.56;3166230;28;20048;-69
2023/01/03 01:26:00;;;;;;;61.20;28.73;;;;;;;4.39;76.88;100749.00;3155876;28;20449;-69
2023/01/03 01:27:32;;;;;;;61.08;29.13;;;;;;;4.44;76.93;100759.31;3159079;28;20508;-67
2023/01/03 01:29:04;;;;;;;61.78;30.45;;;;;;;4.43;76.83;100757.59;3170757;28;20133;-69
2023/01/03 01:30:38;;;;;;;61.28;29.85;;;;;;;4.42;76.85;100756.72;3158338;28;20147;-68
2023/01/03 01:32:10;;;;;;;64.28;28.88;;;;;;;4.39;76.94;100746.44;3170013;28;20086;-69
2023/01/03 01:33:41;;;;;;;63.78;30.67;;;;;;;4.26;77.06;100734.44;3158063;28;20051;-69
2023/01/03 01:35:13;;;;;;;62.13;30.13;;;;;;;4.30;77.00;100738.75;3158021;28;20462;-69
2023/01/03 01:36:46;;;;;;;61.72;28.02;;;;;;;3.95;77.03;100677.88;3158042;28;20052;-68
2023/01/03 01:38:17;;;;;;;65.05;28.83;;;;;;;4.33;77.05;100747.31;3167632;28;20039;-68
2023/01/03 01:39:49;;;;;;;64.22;29.70;;;;;;;4.29;77.02;100737.88;3156024;28;20049;-69
2023/01/03 01:44:36;;;;;;;54.63;26.70;;;;;;;4.31;77.15;100748.19;3165133;28;20055;-69
2023/01/03 01:45:12;;;;;;;63.45;28.05;;;;;;;4.18;77.04;100739.66;3158094;28;20087;-69
2023/01/03 01:46:45;;;;;;;54.45;27.02;;;;;;;4.19;77.12;100745.66;3157718;28;20059;-69
2023/01/03 01:48:17;;;;;;;57.70;26.52;;;;;;;4.13;77.19;100743.09;3158055;28;20454;-69
2023/01/03 01:49:51;;;;;;;54.75;26.10;;;;;;;4.16;77.54;100751.69;3168685;28;20052;-69
2023/01/03 01:51:26;;;;;;;58.58;26.17;;;;;;;4.13;77.45;100751.69;3159743;28;20059;-68
2023/01/03 01:53:02;;;;;;;55.05;25.70;;;;;;;4.12;77.43;100738.81;3168217;28;20056;-69
2023/01/03 01:54:33;;;;;;;49.15;24.77;;;;;;;4.08;77.43;100737.94;3168824;28;20047;-68
2023/01/03 01:56:17;;;;;;;51.30;24.77;;;;;;;4.08;77.28;100735.38;3157734;28;20221;-68
2023/01/03 01:57:50;;;;;;;55.38;25.55;;;;;;;4.04;77.46;100741.41;3165742;28;20056;-69
2023/01/03 01:59:22;;;;;;;54.30;26.23;;;;;;;4.01;77.42;100736.28;3163954;28;20059;-69
2023/01/03 02:00:54;;;;;;;52.75;25.08;;;;;;;3.99;77.39;100738.00;3157302;28;20153;-68
2023/01/03 02:02:28;;;;;;;51.23;25.63;;;;;;;3.87;77.48;100716.56;3157688;28;20040;-68
2023/01/03 02:04:15;;;;;;;51.05;24.30;;;;;;;3.95;77.53;100737.16;3165659;28;20308;-69
2023/01/03 02:05:51;;;;;;;57.83;23.60;;;;;;;3.94;77.70;100734.59;3170397;28;20412;-69
2023/01/03 02:07:23;;;;;;;53.03;24.88;;;;;;;3.92;77.66;100736.31;3170370;28;20043;-69
2023/01/03 02:08:55;;;;;;;52.35;23.92;;;;;;;3.50;77.61;100661.72;3170605;28;20056;-69
2023/01/03 02:10:47;;;;;;;49.25;24.52;;;;;;;3.92;77.60;100729.44;3166412;28;20131;-69
2023/01/03 02:14:32;;;;;;;52.78;24.38;;;;;;;3.88;77.83;100740.63;3146869;28;20485;-70
2023/01/03 02:16:18;;;;;;;51.95;24.42;;;;;;;3.80;77.92;100726.88;3145644;28;20465;-69
2023/01/03 02:18:06;;;;;;;48.90;24.20;;;;;;;3.54;77.85;100678.00;3157646;28;20047;-69
2023/01/03 02:20:15;;;;;;;58.33;26.58;;;;;;;3.84;77.99;100733.72;3160757;28;20551;-69
2023/01/03 02:22:15;;;;;;;53.78;23.77;;;;;;;3.80;77.92;100724.31;3164271;28;20505;-69
2023/01/03 02:24:17;;;;;;;46.13;23.42;;;;;;;3.58;77.90;100684.84;3165815;28;20052;-68
2023/01/03 02:26:20;;;;;;;48.83;24.20;;;;;;;3.79;78.04;100726.03;3143117;28;20060;-68
2023/01/03 02:28:21;;;;;;;53.28;23.50;;;;;;;3.80;78.10;100721.72;3166246;28;20047;-68
2023/01/03 02:30:28;;;;;;;52.15;24.15;;;;;;;3.78;78.12;100726.88;3163398;28;20048;-68
2023/01/03 02:32:07;;;;;;;51.17;24.90;;;;;;;3.77;78.33;100727.75;3158409;28;20056;-69
2023/01/03 02:33:46;;;;;;;54.20;25.08;;;;;;;3.80;78.25;100726.88;3169208;28;20051;-68
2023/01/03 02:35:27;;;;;;;50.10;24.45;;;;;;;3.67;78.21;100707.16;3158123;28;20059;-69
2023/01/03 02:37:07;;;;;;;50.20;24.30;;;;;;;3.79;78.26;100723.47;3157205;28;20075;-69
2023/01/03 02:38:50;;;;;;;52.03;22.90;;;;;;;3.79;78.19;100720.88;3157344;28;20496;-69
2023/01/03 02:40:28;;;;;;;49.28;24.33;;;;;;;3.60;78.26;100693.44;3144945;28;20501;-69
2023/01/03 02:44:05;;;;;;;42.33;21.88;;;;;;;3.77;78.14;100721.75;3157018;28;20032;-68
2023/01/03 02:45:56;;;;;;;51.05;23.83;;;;;;;3.75;78.09;100716.59;3160776;28;20048;-68
2023/01/03 02:47:34;;;;;;;49.67;23.20;;;;;;;3.75;78.06;100718.31;3169829;28;20075;-68
2023/01/03 02:49:09;;;;;;;48.55;24.40;;;;;;;3.76;78.05;100715.75;3164581;28;20425;-69
2023/01/03 02:50:48;;;;;;;49.42;22.05;;;;;;;3.76;78.16;100715.75;3157382;28;20051;-67
2023/01/03 02:52:26;;;;;;;53.45;23.65;;;;;;;3.77;78.29;100725.16;3161706;28;20795;-68
2023/01/03 02:54:00;;;;;;;50.92;23.40;;;;;;;3.76;78.38;100726.03;3165351;28;20482;-68
2023/01/03 02:55:31;;;;;;;;;;;;;;;3.69;78.27;100729.47;3164441;28;20048;-67
2023/01/03 02:57:09;;;;;;;47.97;22.73;;;;;;;3.69;78.51;100726.06;3161590;28;19946;-66
2023/01/03 02:58:46;;;;;;;47.95;22.27;;;;;;;3.68;78.53;100714.03;3165313;28;20055;-67
2023/01/03 03:00:22;;;;;;;50.47;24.17;;;;;;;3.71;78.50;100725.19;3161551;28;20047;-67
2023/01/03 03:01:55;;;;;;;48.33;23.35;;;;;;;3.73;78.51;100727.78;3165250;28;20317;-68
2023/01/03 03:03:31;;;;;;;49.10;22.90;;;;;;;3.74;78.38;100720.03;3157107;28;20052;-68
2023/01/03 03:05:08;;;;;;;49.03;23.40;;;;;;;3.73;78.54;100720.91;3160924;28;20200;-68
2023/01/03 03:06:46;;;;;;;46.97;22.67;;;;;;;3.72;78.54;100733.78;3165903;28;20048;-69
2023/01/03 03:08:18;;;;;;;52.33;25.15;;;;;;;3.64;78.56;100716.63;3160773;28;20043;-68
2023/01/03 03:13:37;;;;;;;49.58;22.50;;;;;;;3.66;78.44;100719.19;3163970;28;20142;-69
2023/01/03 03:15:12;;;;;;;48.13;23.50;;;;;;;3.66;78.45;100726.91;3160440;28;20059;-68
2023/01/03 03:16:50;;;;;;;45.80;22.42;;;;;;;3.24;78.21;100653.19;3163226;28;20055;-68
2023/01/03 03:18:31;;;;;;;48.30;22.52;;;;;;;3.64;78.19;100720.94;3166888;28;20054;-69
2023/01/03 03:25:51;;;;;;;;;;;;;;;3.52;78.08;100724.38;3159405;28;20052;-68
2023/01/03 03:29:18;;;;;;;47.95;22.85;;;;;;;3.44;78.09;100714.94;3147704;28;20415;-68
2023/01/03 03:30:53;;;;;;;49.03;23.50;;;;;;;3.49;78.13;100720.94;3169205;28;20051;-68
2023/01/03 03:32:29;;;;;;;52.50;23.90;;;;;;;3.51;78.14;100717.50;3168487;28;20056;-68
2023/01/03 03:34:07;;;;;;;45.67;22.40;;;;;;;3.52;78.34;100720.91;3154812;28;20048;-68
2023/01/03 03:35:53;;;;;;;44.80;21.50;;;;;;;3.52;78.45;100718.34;3156552;28;20052;-68
2023/01/03 03:37:26;;;;;;;44.50;21.58;;;;;;;3.51;78.56;100721.78;3159431;28;20119;-68
2023/01/03 03:39:00;;;;;;;47.30;21.27;;;;;;;3.49;78.56;100718.34;3168322;28;20101;-68
2023/01/03 03:46:27;;;;;;;48.30;23.25;;;;;;;3.44;78.52;100720.09;3156156;28;20044;-68
2023/01/03 03:48:07;;;;;;;49.83;21.73;;;;;;;3.44;78.67;100715.81;3166627;28;20108;-69
2023/01/03 03:49:43;;;;;;;44.58;21.70;;;;;;;3.43;78.59;100719.22;3158399;28;20064;-69
2023/01/03 03:51:19;;;;;;;49.35;21.70;;;;;;;3.43;78.58;100719.22;3156589;28;20063;-69
2023/01/03 03:52:57;;;;;;;48.35;22.08;;;;;;;3.04;78.32;100666.06;3155672;28;20056;-69
2023/01/03 03:54:33;;;;;;;44.08;22.08;;;;;;;3.36;78.42;100708.06;3156304;28;20048;-68
2023/01/03 03:56:09;;;;;;;45.83;21.05;;;;;;;3.39;78.46;100712.38;3166047;28;20155;-69
2023/01/03 03:57:46;;;;;;;48.28;20.52;;;;;;;3.39;78.48;100714.94;3167061;28;20063;-69
2023/01/03 03:59:22;;;;;;;41.85;19.73;;;;;;;3.34;78.50;100717.53;3150351;28;20197;-69
2023/01/03 04:00:55;;;;;;;38.88;19.13;;;;;;;3.00;78.58;100661.78;3153151;28;20622;-69
2023/01/03 04:02:28;;;;;;;;;;;;;;;3.29;78.46;100714.09;3165504;28;20052;-69
2023/01/03 04:04:05;;;;;;;39.78;19.00;;;;;;;3.29;78.73;100714.09;3168091;28;20796;-68
2023/01/03 04:05:41;;;;;;;41.85;20.15;;;;;;;3.26;78.65;100703.81;3160698;28;20048;-68
2023/01/03 04:07:12;;;;;;;43.38;20.15;;;;;;;3.31;78.57;100706.34;3156237;28;20399;-69
2023/01/03 04:08:44;;;;;;;48.97;20.63;;;;;;;3.33;78.54;100713.22;3156009;28;20461;-69
2023/01/03 04:10:19;;;;;;;37.95;19.23;;;;;;;3.34;78.50;100704.66;3156355;28;20085;-69
2023/01/03 04:11:49;;;;;;;45.53;22.55;;;;;;;3.34;78.50;100708.94;3162459;28;20063;-69
2023/01/03 04:13:21;;;;;;;43.25;20.70;;;;;;;3.30;78.64;100707.22;3168855;28;20078;-69
2023/01/03 04:14:52;;;;;;;42.08;18.70;;;;;;;3.29;78.41;100711.53;3157125;28;20074;-69
2023/01/03 04:16:24;;;;;;;41.20;19.33;;;;;;;3.26;78.34;100710.69;3155923;28;20476;-68
2023/01/03 04:17:56;;;;;;;39.70;18.95;;;;;;;3.22;78.12;100712.38;3155968;28;20555;-69
2023/01/03 04:19:27;;;;;;;37.00;19.63;;;;;;;3.18;78.07;100715.81;3156720;28;20044;-67
2023/01/03 04:21:00;;;;;;;45.30;20.73;;;;;;;3.17;78.26;100703.81;3162991;28;20440;-68
2023/01/03 04:22:32;;;;;;;44.13;19.65;;;;;;;2.85;78.23;100650.63;3156354;28;20044;-68
2023/01/03 04:24:03;;;;;;;38.38;19.40;;;;;;;3.12;78.14;100698.66;3156340;28;20055;-69
2023/01/03 04:25:35;;;;;;;42.10;20.42;;;;;;;3.20;78.24;100708.97;3168029;28;20051;-69
2023/01/03 04:27:06;;;;;;;38.63;20.27;;;;;;;3.21;78.42;100709.81;3157348;28;20109;-68
2023/01/03 04:28:38;;;;;;;39.67;20.50;;;;;;;3.21;78.58;100710.66;3156376;28;20124;-68
2023/01/03 04:30:11;;;;;;;42.60;20.27;;;;;;;3.22;78.58;100716.66;3165200;28;20366;-68
2023/01/03 04:31:42;;;;;;;;;;;;;;;3.15;78.54;100720.97;3160440;28;20050;-69
2023/01/03 04:33:14;;;;;;;37.60;18.92;;;;;;;3.14;78.79;100711.53;3155835;28;20352;-68
2023/01/03 04:34:46;;;;;;;39.58;19.92;;;;;;;3.14;78.85;100712.41;3156180;28;20090;-69
2023/01/03 04:36:19;;;;;;;40.83;19.73;;;;;;;3.16;78.63;100712.38;3155967;28;20036;-68
2023/01/03 04:37:51;;;;;;;;;;;;;;;3.09;78.54;100713.25;3156558;28;20140;-68
2023/01/03 04:39:23;;;;;;;39.47;19.38;;;;;;;2.89;78.61;100693.50;3152569;28;19920;-68
2023/01/03 04:40:55;;;;;;;35.50;19.00;;;;;;;3.07;78.75;100722.66;3149461;28;20052;-68
2023/01/03 04:44:15;;;;;;;43.45;20.50;;;;;;;3.07;78.64;100723.53;3148876;28;20048;-68
2023/01/03 04:45:48;;;;;;;40.22;19.88;;;;;;;3.08;78.81;100719.25;3160278;28;20053;-68
2023/01/03 04:47:20;;;;;;;39.05;19.23;;;;;;;2.62;78.79;100649.75;3165059;28;20048;-67
2023/01/03 04:48:52;;;;;;;43.70;19.83;;;;;;;3.08;78.79;100724.41;3146478;28;20059;-68
2023/01/03 04:50:24;;;;;;;40.90;20.02;;;;;;;3.09;78.88;100721.81;3158105;28;20052;-68
2023/01/03 04:51:57;;;;;;;41.67;20.00;;;;;;;3.06;78.80;100718.41;3156645;28;20517;-68
2023/01/03 04:53:28;;;;;;;44.63;20.50;;;;;;;3.00;78.72;100706.38;3157091;28;20052;-68
2023/01/03 04:55:00;;;;;;;46.80;22.05;;;;;;;3.10;78.65;100728.66;3168575;28;20141;-68
2023/01/03 04:56:33;;;;;;;42.65;19.90;;;;;;;3.11;78.81;100726.97;3166656;28;20059;-68
2023/01/03 04:58:05;;;;;;;44.13;20.85;;;;;;;3.10;78.80;100727.81;3168453;28;20047;-67
2023/01/03 04:59:37;;;;;;;43.60;20.10;;;;;;;3.08;78.72;100726.97;3156249;28;20055;-68
2023/01/03 05:01:09;;;;;;;45.17;20.63;;;;;;;3.03;78.74;100728.69;3155934;28;20409;-69
2023/01/03 05:02:41;;;;;;;42.95;20.30;;;;;;;3.07;78.69;100733.81;3166162;28;20063;-68
2023/01/03 05:04:13;;;;;;;51.00;21.73;;;;;;;3.08;78.61;100726.97;3168596;28;20047;-68
2023/01/03 05:05:43;;;;;;;51.80;22.38;;;;;;;3.11;78.76;100729.56;3164508;28;20399;-68
2023/01/03 05:07:17;;;;;;;55.10;24.17;;;;;;;3.09;78.78;100732.13;3160612;28;20047;-68
2023/01/03 05:08:49;;;;;;;48.97;22.85;;;;;;;3.12;78.89;100736.41;3155774;28;20044;-68
2023/01/03 05:10:21;;;;;;;47.90;23.15;;;;;;;3.12;78.93;100733.84;3155881;28;20106;-68
2023/01/03 05:11:53;;;;;;;50.90;22.20;;;;;;;3.09;79.11;100731.25;3161520;28;20488;-68
2023/01/03 05:13:24;;;;;;;49.97;23.23;;;;;;;3.07;79.07;100731.25;3162890;28;20526;-69
2023/01/03 05:14:56;;;;;;;47.53;23.05;;;;;;;3.12;79.06;100749.28;3159946;28;20039;-68
2023/01/03 05:16:28;;;;;;;46.72;21.92;;;;;;;3.09;79.04;100739.84;3170951;28;20052;-69
2023/01/03 05:17:58;;;;;;;44.08;22.42;;;;;;;3.09;79.10;100746.69;3165591;28;20066;-69
2023/01/03 05:19:30;;;;;;;45.72;23.52;;;;;;;2.99;79.15;100725.25;3166397;28;20052;-67
2023/01/03 05:26:39;;;;;;;59.00;23.38;;;;;;;2.98;78.90;100746.69;3170678;28;20083;-68
2023/01/03 05:28:12;;;;;;;49.63;22.33;;;;;;;2.96;78.82;100741.56;3170509;28;20469;-66
2023/01/03 05:29:46;;;;;;;53.65;24.45;;;;;;;2.92;78.84;100744.97;3162512;28;20056;-67
2023/01/03 05:31:18;;;;;;;46.80;22.20;;;;;;;2.95;78.76;100739.81;3158704;28;20051;-67
2023/01/03 05:32:50;;;;;;;156.77;64.40;;;;;;;2.84;78.90;100728.69;3170702;28;20100;-65
2023/01/03 05:34:22;;;;;;;141.55;63.22;;;;;;;2.95;78.95;100741.53;3161867;28;20582;-67
2023/01/03 05:35:54;;;;;;;221.32;97.05;;;;;;;3.01;78.93;100750.97;3157731;28;20048;-68
2023/01/03 05:37:26;;;;;;;95.80;44.50;;;;;;;2.33;78.88;100634.28;3157208;28;20052;-68
2023/01/03 05:38:59;;;;;;;52.03;25.98;;;;;;;3.05;78.95;100750.16;3155753;28;20048;-69
2023/01/03 05:40:31;;;;;;;48.33;25.40;;;;;;;3.05;79.02;100752.72;3165675;28;20047;-69
2023/01/03 05:42:04;;;;;;;70.13;31.17;;;;;;;2.67;79.00;100691.78;3170201;28;20112;-70
2023/01/03 05:43:36;;;;;;;131.50;57.40;;;;;;;3.08;78.90;100752.72;3159433;28;20105;-70
2023/01/03 05:45:09;;;;;;;92.50;38.88;;;;;;;3.10;79.03;100759.56;3157745;28;20040;-66
2023/01/03 05:46:41;;;;;;;141.07;64.13;;;;;;;3.03;79.04;100744.13;3158262;28;20577;-68
2023/01/03 05:48:13;;;;;;;73.22;34.60;;;;;;;3.15;78.73;100757.00;3157327;28;20055;-71
2023/01/03 05:49:45;;;;;;;50.15;25.95;;;;;;;3.14;79.07;100756.16;3157852;28;20135;-69
2023/01/03 05:51:17;;;;;;;50.78;24.45;;;;;;;3.18;79.17;100754.44;3158161;28;20075;-67
2023/01/03 05:52:49;;;;;;;52.47;24.08;;;;;;;2.79;79.02;100696.09;3161981;28;20047;-72
2023/01/03 05:54:22;;;;;;;53.22;24.67;;;;;;;3.16;78.95;100754.41;3170729;28;20100;-70
2023/01/03 05:55:54;;;;;;;57.55;27.15;;;;;;;3.16;79.03;100756.13;3170805;28;20048;-69
2023/01/03 05:57:26;;;;;;;55.60;26.33;;;;;;;3.15;78.99;100763.00;3162991;28;20052;-66
2023/01/03 05:58:58;;;;;;;54.70;25.60;;;;;;;3.14;79.07;100756.16;3165275;28;20055;-66
2023/01/03 06:00:30;;;;;;;54.72;25.80;;;;;;;3.14;78.96;100753.56;3169959;28;20108;-65
2023/01/03 06:02:02;;;;;;;49.88;23.52;;;;;;;3.13;78.86;100753.56;3157370;28;20483;-65
2023/01/03 06:03:34;;;;;;;79.15;36.70;;;;;;;3.14;78.88;100756.16;3148646;28;20071;-66
2023/01/03 06:05:05;;;;;;;69.88;33.03;;;;;;;3.14;78.82;100761.28;3157637;28;20074;-66
2023/01/03 06:06:37;;;;;;;86.35;36.17;;;;;;;3.11;78.75;100757.88;3157831;28;20048;-63
2023/01/03 06:08:09;;;;;;;73.45;33.13;;;;;;;3.12;78.77;100767.28;3157436;28;20052;-64
2023/01/03 06:09:42;;;;;;;56.95;28.40;;;;;;;3.12;78.67;100770.72;3157972;28;20056;-63
2023/01/03 06:11:15;;;;;;;61.45;31.17;;;;;;;3.13;78.63;100769.00;3157514;28;20107;-64
2023/01/03 06:12:47;;;;;;;75.15;34.92;;;;;;;3.09;78.60;100762.16;3157293;28;20101;-63
2023/01/03 06:14:19;;;;;;;95.70;46.65;;;;;;;3.13;78.60;100771.56;3157189;28;20062;-64
2023/01/03 06:17:56;;;;;;;61.97;28.75;;;;;;;3.21;78.65;100780.16;3165599;28;20555;-65
2023/01/03 06:19:28;;;;;;;55.47;25.35;;;;;;;3.28;78.56;100781.88;3165378;28;20460;-67
2023/01/03 06:21:00;;;;;;;58.08;24.10;;;;;;;3.34;78.83;100773.28;3170491;28;20096;-66
2023/01/03 06:22:32;;;;;;;114.88;50.38;;;;;;;3.39;78.79;100772.44;3170739;28;20071;-63
2023/01/03 06:24:04;;;;;;;121.93;56.30;;;;;;;3.53;78.99;100774.16;3157880;28;20055;-64
2023/01/03 06:25:37;;;;;;;179.63;80.60;;;;;;;3.62;78.96;100775.00;3157293;28;20064;-69
2023/01/03 06:27:09;;;;;;;82.28;35.35;;;;;;;3.75;78.99;100777.56;3167918;28;20043;-63
2023/01/03 06:28:41;;;;;;;75.07;35.35;;;;;;;3.86;78.90;100768.09;3169839;28;20384;-63
2023/01/03 06:30:14;;;;;;;88.13;41.90;;;;;;;4.00;78.77;100774.06;3164549;27;20504;-62
2023/01/03 06:31:46;;;;;;;84.25;40.08;;;;;;;4.14;78.51;100768.91;3170437;28;20062;-64
2023/01/03 06:33:18;;;;;;;84.45;41.65;;;;;;;4.27;78.39;100767.13;3161692;28;20466;-61
2023/01/03 06:34:50;;;;;;;92.95;39.80;;;;;;;4.23;78.24;100743.06;3158306;28;20043;-65
2023/01/03 06:36:24;;;;;;;78.82;35.42;;;;;;;4.49;77.96;100766.13;3169475;28;20528;-63
2023/01/03 06:37:57;;;;;;;66.30;31.42;;;;;;;4.54;77.79;100750.66;3168780;28;20156;-63
2023/01/03 06:39:28;;;;;;;69.10;30.88;;;;;;;4.75;77.56;100763.44;3157508;28;20140;-63
2023/01/03 06:41:03;;;;;;;63.60;28.98;;;;;;;4.90;77.42;100772.81;3161651;28;20047;-62
2023/01/03 06:42:42;;;;;;;60.55;26.73;;;;;;;5.02;77.24;100771.88;3169271;27;20132;-62
2023/01/03 06:44:14;;;;;;;70.63;27.90;;;;;;;5.16;77.16;100775.22;3158616;28;20409;-62
2023/01/03 06:53:13;;;;;;;72.40;27.73;;;;;;;5.87;75.54;100772.00;3168070;28;20059;-61
2023/01/03 06:54:45;;;;;;;61.10;28.27;;;;;;;5.99;75.39;100766.72;3169767;28;20051;-62
2023/01/03 06:56:20;;;;;;;60.95;27.98;;;;;;;6.13;74.93;100767.44;3162016;28;20108;-62
2023/01/03 06:57:52;;;;;;;62.42;28.40;;;;;;;6.27;74.57;100769.00;3160730;28;20516;-62
2023/01/03 06:59:24;;;;;;;67.25;27.85;;;;;;;6.43;74.30;100773.13;3166797;28;20058;-62
2023/01/03 07:01:01;;;;;;;66.95;28.58;;;;;;;6.58;73.89;100769.47;3163980;28;20535;-61
2023/01/03 07:02:33;;;;;;;62.92;26.83;;;;;;;6.73;73.43;100771.00;3156089;28;20120;-61
2023/01/03 07:04:05;;;;;;;67.53;28.60;;;;;;;6.89;72.91;100769.94;3159867;28;20048;-61
2023/01/03 07:05:37;;;;;;;50.92;24.67;;;;;;;7.05;72.56;100771.41;3167884;28;20054;-62
2023/01/03 07:07:09;;;;;;;61.45;26.77;;;;;;;7.23;71.83;100774.59;3157824;28;20048;-62
2023/01/03 07:08:41;;;;;;;61.38;25.25;;;;;;;7.42;71.57;100767.34;3157434;28;20161;-63
2023/01/03 07:10:12;;;;;;;56.10;25.27;;;;;;;7.63;71.58;100764.41;3149502;28;20056;-62
2023/01/03 07:11:46;;;;;;;48.78;24.23;;;;;;;7.87;70.88;100765.72;3164325;28;20108;-63
2023/01/03 07:15:07;;;;;;;50.30;22.58;;;;;;;8.41;69.55;100770.72;3157486;28;20085;-62
2023/01/03 07:16:41;;;;;;;52.85;22.55;;;;;;;8.66;68.85;100765.00;3164080;28;20051;-63
2023/01/03 07:18:13;;;;;;;49.63;20.63;;;;;;;8.95;68.06;100774.75;3167130;28;20052;-63
2023/01/03 07:19:46;;;;;;;38.33;20.90;;;;;;;9.23;67.29;100772.38;3169895;28;20040;-63
2023/01/03 07:21:18;;;;;;;45.30;20.95;;;;;;;9.51;66.72;100763.88;3170348;28;20059;-63
2023/01/03 07:22:50;;;;;;;40.92;19.08;;;;;;;9.84;65.65;100769.09;3167645;28;20054;-64
2023/01/03 07:24:22;;;;;;;39.95;20.15;;;;;;;10.14;64.59;100772.59;3156794;28;20063;-63
2023/01/03 07:25:54;;;;;;;36.75;19.00;;;;;;;10.49;63.60;100763.81;3157391;28;20730;-64
2023/01/03 07:27:30;;;;;;;38.92;18.92;;;;;;;10.86;62.43;100766.19;3162917;28;20048;-63
2023/01/03 07:29:04;;;;;;;47.03;20.38;;;;;;;11.25;61.47;100770.19;3169337;28;20711;-64
2023/01/03 07:30:40;;;;;;;35.03;18.70;;;;;;;11.59;60.48;100773.38;3169800;28;20047;-63
2023/01/03 07:32:11;;;;;;;42.53;20.15;;;;;;;11.88;60.08;100768.94;3158752;28;20048;-64
2023/01/03 07:33:44;;;;;;;35.78;19.02;;;;;;;12.16;58.91;100763.59;3157337;28;20055;-64
2023/01/03 07:35:16;;;;;;;38.40;20.00;;;;;;;12.49;58.19;100764.09;3166368;28;20103;-64
2023/01/03 07:36:47;;;;;;;42.08;20.52;;;;;;;12.76;57.28;100766.56;3161346;28;20088;-64
2023/01/03 07:38:18;;;;;;;37.38;19.08;;;;;;;13.03;56.43;100766.41;3156905;28;20051;-64
2023/01/03 07:39:50;;;;;;;42.60;19.77;;;;;;;13.27;55.62;100762.81;3162329;28;20079;-64
2023/01/03 07:41:24;;;;;;;45.05;20.17;;;;;;;13.54;54.83;100766.03;3162975;28;20047;-64
2023/01/03 07:44:45;;;;;;;42.03;19.02;;;;;;;13.95;53.52;100766.03;3161065;28;20484;-64
2023/01/03 07:46:19;;;;;;;44.17;20.13;;;;;;;14.13;53.02;100769.63;3169138;28;20138;-65
2023/01/03 07:47:51;;;;;;;47.92;21.02;;;;;;;14.32;52.39;100762.66;3150701;28;20060;-64
2023/01/03 07:49:23;;;;;;;41.70;21.17;;;;;;;14.48;52.23;100765.41;3149229;28;20052;-64
2023/01/03 07:50:57;;;;;;;42.45;22.35;;;;;;;14.63;51.64;100763.03;3152396;28;20044;-64
2023/01/03 07:52:29;;;;;;;44.72;22.15;;;;;;;14.75;51.30;100759.84;3153947;28;20583;-64
2023/01/03 07:54:01;;;;;;;41.50;21.60;;;;;;;14.88;50.89;100767.97;3156595;28;20067;-63
2023/01/03 07:55:34;;;;;;;54.80;21.87;;;;;;;14.97;50.55;100765.78;3156667;28;20482;-64
2023/01/03 07:57:05;;;;;;;50.05;23.58;;;;;;;15.05;49.97;100770.63;3156862;28;20048;-63
2023/01/03 07:58:40;;;;;;;43.63;22.63;;;;;;;15.00;49.64;100773.50;3158592;28;20500;-64